This is the latest recevied weather packets stored in our database for station/object KC2TER. If no packets are shown the sender has not sent any weather packets the latest 10 day(s).
| Time | Temp. | Humidity | Pressure | Rain* | Wind** | Luminosity | Snow |
|---|---|---|---|---|---|---|---|
| 1777494170 | 11.11° C | 84% | 1012.3 hPa | 0 mm | - | 171 W/m² | - |
| 1777493867 | 11.11° C | 83% | 1012.7 hPa | 0 mm | - | 164 W/m² | - |
| 1777493566 | 11.67° C | 83% | 1012.8 hPa | 0 mm | - | 128 W/m² | - |
| 1777493263 | 11.11° C | 83% | 1012.8 hPa | 0 mm | - | 167 W/m² | - |
| 1777492959 | 11.67° C | 82% | 1013 hPa | 0 mm | - | 124 W/m² | - |
| 1777492657 | 12.22° C | 81% | 1013.1 hPa | 0 mm | - | 160 W/m² | - |
| 1777492356 | 12.22° C | 82% | 1013 hPa | 0 mm | - | 236 W/m² | - |
| 1777492053 | 12.22° C | 82% | 1013.4 hPa | 0 mm | - | 217 W/m² | - |
| 1777491750 | 11.67° C | 81% | 1013.1 hPa | 0 mm | - | 226 W/m² | - |
| 1777491447 | 11.67° C | 81% | 1013.1 hPa | 0 mm | - | 233 W/m² | - |
| 1777491145 | 12.22° C | 81% | 1013.3 hPa | 0 mm | - | 301 W/m² | - |
| 1777490840 | 12.22° C | 80% | 1013.2 hPa | 0 mm | - | 285 W/m² | - |
| 1777490536 | 12.22° C | 80% | 1013.4 hPa | 0 mm | - | 231 W/m² | - |
| 1777490233 | 12.22° C | 79% | 1013.5 hPa | 0 mm | - | 248 W/m² | - |
| 1777489930 | 12.22° C | 77% | 1013.7 hPa | 0 mm | - | 255 W/m² | - |
| 1777489628 | 13.33° C | 77% | 1014 hPa | 0 mm | - | 264 W/m² | - |
| 1777489324 | 13.33° C | 76% | 1014.1 hPa | 0 mm | - | 313 W/m² | - |
| 1777489021 | 12.78° C | 78% | 1014.1 hPa | 0 mm | - | 361 W/m² | - |
| 1777488718 | 12.78° C | 76% | 1014.2 hPa | 0 mm | - | 286 W/m² | - |
| 1777488416 | 12.78° C | 76% | 1014.3 hPa | 0 mm | - | 353 W/m² | - |
| 1777488114 | 13.33° C | 74% | 1014.2 hPa | 0 mm | - | 354 W/m² | - |
| 1777487812 | 14.44° C | 71% | 1014.4 hPa | 0 mm | - | 357 W/m² | - |
| 1777487509 | 15° C | 69% | 1014.7 hPa | 0 mm | - | 576 W/m² | - |
| 1777487206 | 14.44° C | 70% | 1014.7 hPa | 0 mm | - | 817 W/m² | - |
| 1777486903 | 13.89° C | 71% | 1014.5 hPa | 0 mm | - | 904 W/m² | - |
* Rain latest hour (hover to see other rain measurements)
** Current wind speed in m/s (hover to see current wind gust speed)